sensor_id;sensor_type;location;lat;lon;timestamp;P1;durP1;ratioP1;P2;durP2;ratioP2
9716;SDS011;4897;43.570;27.832;2022-08-20T00:00:54;13.85;;;9.52;;
9716;SDS011;4897;43.570;27.832;2022-08-20T00:03:23;11.70;;;9.43;;
9716;SDS011;4897;43.570;27.832;2022-08-20T00:05:55;12.65;;;9.15;;
9716;SDS011;4897;43.570;27.832;2022-08-20T00:08:25;10.15;;;9.05;;
9716;SDS011;4897;43.570;27.832;2022-08-20T00:10:52;10.98;;;8.90;;
9716;SDS011;4897;43.570;27.832;2022-08-20T00:13:29;16.92;;;9.48;;
9716;SDS011;4897;43.570;27.832;2022-08-20T00:15:57;11.32;;;8.93;;
9716;SDS011;4897;43.570;27.832;2022-08-20T00:18:26;18.05;;;8.90;;
9716;SDS011;4897;43.570;27.832;2022-08-20T00:20:53;13.93;;;9.02;;
9716;SDS011;4897;43.570;27.832;2022-08-20T00:23:21;19.90;;;8.98;;
9716;SDS011;4897;43.570;27.832;2022-08-20T00:25:50;12.13;;;9.10;;
9716;SDS011;4897;43.570;27.832;2022-08-20T00:28:17;12.57;;;8.85;;
9716;SDS011;4897;43.570;27.832;2022-08-20T00:30:46;11.02;;;8.68;;
9716;SDS011;4897;43.570;27.832;2022-08-20T00:33:14;11.07;;;8.88;;
9716;SDS011;4897;43.570;27.832;2022-08-20T00:35:49;20.95;;;9.25;;
9716;SDS011;4897;43.570;27.832;2022-08-20T00:38:17;22.80;;;9.00;;
9716;SDS011;4897;43.570;27.832;2022-08-20T00:40:48;14.07;;;8.73;;
9716;SDS011;4897;43.570;27.832;2022-08-20T00:43:25;22.85;;;9.45;;
9716;SDS011;4897;43.570;27.832;2022-08-20T00:45:54;16.52;;;10.18;;
9716;SDS011;4897;43.570;27.832;2022-08-20T00:48:22;23.20;;;9.98;;
9716;SDS011;4897;43.570;27.832;2022-08-20T00:50:51;17.85;;;9.73;;
9716;SDS011;4897;43.570;27.832;2022-08-20T00:53:22;22.48;;;9.82;;
9716;SDS011;4897;43.570;27.832;2022-08-20T00:55:51;21.70;;;9.77;;
9716;SDS011;4897;43.570;27.832;2022-08-20T00:58:18;24.73;;;10.45;;
9716;SDS011;4897;43.570;27.832;2022-08-20T01:00:45;15.77;;;9.32;;
9716;SDS011;4897;43.570;27.832;2022-08-20T01:03:14;21.23;;;10.45;;
9716;SDS011;4897;43.570;27.832;2022-08-20T01:05:45;15.40;;;9.60;;
9716;SDS011;4897;43.570;27.832;2022-08-20T01:08:16;18.33;;;10.23;;
9716;SDS011;4897;43.570;27.832;2022-08-20T01:10:46;14.18;;;9.05;;
9716;SDS011;4897;43.570;27.832;2022-08-20T01:13:15;12.05;;;8.60;;
9716;SDS011;4897;43.570;27.832;2022-08-20T01:15:45;12.15;;;8.90;;
9716;SDS011;4897;43.570;27.832;2022-08-20T01:18:15;12.65;;;9.02;;
9716;SDS011;4897;43.570;27.832;2022-08-20T01:20:47;13.95;;;8.90;;
9716;SDS011;4897;43.570;27.832;2022-08-20T01:23:19;11.23;;;8.75;;
9716;SDS011;4897;43.570;27.832;2022-08-20T01:25:53;11.32;;;9.55;;
9716;SDS011;4897;43.570;27.832;2022-08-20T01:28:25;9.45;;;8.45;;
9716;SDS011;4897;43.570;27.832;2022-08-20T01:30:56;11.57;;;9.18;;
9716;SDS011;4897;43.570;27.832;2022-08-20T01:33:23;12.20;;;8.98;;
9716;SDS011;4897;43.570;27.832;2022-08-20T01:35:51;14.77;;;9.80;;
9716;SDS011;4897;43.570;27.832;2022-08-20T01:38:19;12.00;;;9.13;;
9716;SDS011;4897;43.570;27.832;2022-08-20T01:40:56;16.90;;;9.45;;
9716;SDS011;4897;43.570;27.832;2022-08-20T01:43:37;16.38;;;9.35;;
9716;SDS011;4897;43.570;27.832;2022-08-20T01:46:06;12.63;;;9.02;;
9716;SDS011;4897;43.570;27.832;2022-08-20T01:48:34;11.50;;;8.80;;
9716;SDS011;4897;43.570;27.832;2022-08-20T01:51:04;12.38;;;8.38;;
9716;SDS011;4897;43.570;27.832;2022-08-20T01:53:36;11.50;;;9.07;;
9716;SDS011;4897;43.570;27.832;2022-08-20T01:56:09;21.20;;;8.82;;
9716;SDS011;4897;43.570;27.832;2022-08-20T01:58:44;13.07;;;9.13;;
9716;SDS011;4897;43.570;27.832;2022-08-20T02:01:23;12.57;;;9.73;;
9716;SDS011;4897;43.570;27.832;2022-08-20T02:03:52;15.30;;;9.32;;
9716;SDS011;4897;43.570;27.832;2022-08-20T02:06:20;13.18;;;9.23;;
9716;SDS011;4897;43.570;27.832;2022-08-20T02:08:50;13.82;;;9.15;;
9716;SDS011;4897;43.570;27.832;2022-08-20T02:11:20;13.30;;;9.32;;
9716;SDS011;4897;43.570;27.832;2022-08-20T02:13:48;15.48;;;10.15;;
9716;SDS011;4897;43.570;27.832;2022-08-20T02:16:17;12.57;;;9.57;;
9716;SDS011;4897;43.570;27.832;2022-08-20T02:18:56;15.82;;;9.98;;
9716;SDS011;4897;43.570;27.832;2022-08-20T02:21:28;14.23;;;10.20;;
9716;SDS011;4897;43.570;27.832;2022-08-20T02:23:59;15.20;;;10.40;;
9716;SDS011;4897;43.570;27.832;2022-08-20T02:26:27;19.48;;;10.20;;
9716;SDS011;4897;43.570;27.832;2022-08-20T02:28:55;15.98;;;10.18;;
9716;SDS011;4897;43.570;27.832;2022-08-20T02:31:23;14.30;;;10.32;;
9716;SDS011;4897;43.570;27.832;2022-08-20T02:33:50;15.10;;;10.45;;
9716;SDS011;4897;43.570;27.832;2022-08-20T02:36:18;20.83;;;10.55;;
9716;SDS011;4897;43.570;27.832;2022-08-20T02:38:45;16.77;;;10.48;;
9716;SDS011;4897;43.570;27.832;2022-08-20T02:41:12;15.63;;;10.73;;
9716;SDS011;4897;43.570;27.832;2022-08-20T02:43:41;20.10;;;10.73;;
9716;SDS011;4897;43.570;27.832;2022-08-20T02:46:07;16.20;;;10.75;;
9716;SDS011;4897;43.570;27.832;2022-08-20T02:48:35;14.68;;;10.35;;
9716;SDS011;4897;43.570;27.832;2022-08-20T02:51:03;13.30;;;10.48;;
9716;SDS011;4897;43.570;27.832;2022-08-20T02:53:33;14.40;;;10.57;;
9716;SDS011;4897;43.570;27.832;2022-08-20T02:56:03;21.52;;;10.27;;
9716;SDS011;4897;43.570;27.832;2022-08-20T02:58:30;18.25;;;10.10;;
9716;SDS011;4897;43.570;27.832;2022-08-20T03:00:59;16.80;;;11.32;;
9716;SDS011;4897;43.570;27.832;2022-08-20T03:03:26;15.38;;;11.43;;
9716;SDS011;4897;43.570;27.832;2022-08-20T03:05:56;14.85;;;10.35;;
9716;SDS011;4897;43.570;27.832;2022-08-20T03:08:25;20.60;;;9.73;;
9716;SDS011;4897;43.570;27.832;2022-08-20T03:10:53;19.77;;;10.57;;
9716;SDS011;4897;43.570;27.832;2022-08-20T03:13:23;14.52;;;10.30;;
9716;SDS011;4897;43.570;27.832;2022-08-20T03:15:52;20.08;;;9.73;;
9716;SDS011;4897;43.570;27.832;2022-08-20T03:18:23;21.05;;;10.15;;
9716;SDS011;4897;43.570;27.832;2022-08-20T03:20:52;21.40;;;10.25;;
9716;SDS011;4897;43.570;27.832;2022-08-20T03:23:19;13.23;;;9.77;;
9716;SDS011;4897;43.570;27.832;2022-08-20T03:25:47;16.25;;;10.20;;
9716;SDS011;4897;43.570;27.832;2022-08-20T03:28:15;18.35;;;11.05;;
9716;SDS011;4897;43.570;27.832;2022-08-20T03:30:46;13.95;;;10.88;;
9716;SDS011;4897;43.570;27.832;2022-08-20T03:33:14;22.55;;;11.10;;
9716;SDS011;4897;43.570;27.832;2022-08-20T03:35:42;13.45;;;10.13;;
9716;SDS011;4897;43.570;27.832;2022-08-20T03:38:10;14.65;;;10.00;;
9716;SDS011;4897;43.570;27.832;2022-08-20T03:40:38;16.80;;;12.10;;
9716;SDS011;4897;43.570;27.832;2022-08-20T03:43:08;15.13;;;10.38;;
9716;SDS011;4897;43.570;27.832;2022-08-20T03:45:35;16.58;;;10.13;;
9716;SDS011;4897;43.570;27.832;2022-08-20T03:48:04;21.77;;;10.13;;
9716;SDS011;4897;43.570;27.832;2022-08-20T03:50:33;19.23;;;10.90;;
9716;SDS011;4897;43.570;27.832;2022-08-20T03:53:01;15.10;;;10.32;;
9716;SDS011;4897;43.570;27.832;2022-08-20T03:55:29;19.23;;;10.00;;
9716;SDS011;4897;43.570;27.832;2022-08-20T03:57:57;14.75;;;10.00;;
9716;SDS011;4897;43.570;27.832;2022-08-20T04:00:28;26.27;;;11.85;;
9716;SDS011;4897;43.570;27.832;2022-08-20T04:02:58;20.08;;;10.60;;
9716;SDS011;4897;43.570;27.832;2022-08-20T04:05:26;23.60;;;10.60;;
9716;SDS011;4897;43.570;27.832;2022-08-20T04:07:55;18.40;;;10.55;;
9716;SDS011;4897;43.570;27.832;2022-08-20T04:10:26;17.00;;;10.95;;
9716;SDS011;4897;43.570;27.832;2022-08-20T04:12:55;26.73;;;11.50;;
9716;SDS011;4897;43.570;27.832;2022-08-20T04:15:22;16.77;;;11.35;;
9716;SDS011;4897;43.570;27.832;2022-08-20T04:17:51;31.90;;;10.65;;
9716;SDS011;4897;43.570;27.832;2022-08-20T04:20:21;19.95;;;11.77;;
9716;SDS011;4897;43.570;27.832;2022-08-20T04:22:53;29.50;;;12.13;;
9716;SDS011;4897;43.570;27.832;2022-08-20T04:25:21;21.05;;;12.95;;
9716;SDS011;4897;43.570;27.832;2022-08-20T04:27:50;20.95;;;13.60;;
9716;SDS011;4897;43.570;27.832;2022-08-20T04:30:18;28.52;;;13.15;;
9716;SDS011;4897;43.570;27.832;2022-08-20T04:32:46;32.38;;;13.50;;
9716;SDS011;4897;43.570;27.832;2022-08-20T04:35:14;21.80;;;13.02;;
9716;SDS011;4897;43.570;27.832;2022-08-20T04:37:42;23.90;;;12.35;;
9716;SDS011;4897;43.570;27.832;2022-08-20T04:40:14;23.65;;;11.52;;
9716;SDS011;4897;43.570;27.832;2022-08-20T04:43:01;18.95;;;10.73;;
9716;SDS011;4897;43.570;27.832;2022-08-20T04:45:31;21.70;;;10.45;;
9716;SDS011;4897;43.570;27.832;2022-08-20T04:48:00;22.27;;;11.32;;
9716;SDS011;4897;43.570;27.832;2022-08-20T04:50:29;28.73;;;10.40;;
9716;SDS011;4897;43.570;27.832;2022-08-20T04:52:59;19.63;;;10.32;;
9716;SDS011;4897;43.570;27.832;2022-08-20T04:55:33;26.67;;;11.18;;
9716;SDS011;4897;43.570;27.832;2022-08-20T04:58:05;17.63;;;10.13;;
9716;SDS011;4897;43.570;27.832;2022-08-20T05:00:33;24.02;;;10.27;;
9716;SDS011;4897;43.570;27.832;2022-08-20T05:03:06;15.35;;;9.55;;
9716;SDS011;4897;43.570;27.832;2022-08-20T05:05:33;20.52;;;11.30;;
9716;SDS011;4897;43.570;27.832;2022-08-20T05:08:00;19.17;;;10.68;;
9716;SDS011;4897;43.570;27.832;2022-08-20T05:10:28;24.42;;;10.45;;
9716;SDS011;4897;43.570;27.832;2022-08-20T05:12:55;29.08;;;10.35;;
9716;SDS011;4897;43.570;27.832;2022-08-20T05:15:24;15.27;;;10.10;;
9716;SDS011;4897;43.570;27.832;2022-08-20T05:17:53;14.57;;;9.95;;
9716;SDS011;4897;43.570;27.832;2022-08-20T05:20:25;22.15;;;10.45;;
9716;SDS011;4897;43.570;27.832;2022-08-20T05:22:53;15.20;;;10.10;;
9716;SDS011;4897;43.570;27.832;2022-08-20T05:25:22;20.90;;;10.07;;
9716;SDS011;4897;43.570;27.832;2022-08-20T05:27:49;18.67;;;9.88;;
9716;SDS011;4897;43.570;27.832;2022-08-20T05:30:32;16.00;;;9.80;;
9716;SDS011;4897;43.570;27.832;2022-08-20T05:33:00;18.27;;;8.88;;
9716;SDS011;4897;43.570;27.832;2022-08-20T05:35:29;19.50;;;9.38;;
9716;SDS011;4897;43.570;27.832;2022-08-20T05:38:03;11.10;;;8.50;;
9716;SDS011;4897;43.570;27.832;2022-08-20T05:40:36;10.45;;;7.80;;
9716;SDS011;4897;43.570;27.832;2022-08-20T05:43:03;17.00;;;8.45;;
9716;SDS011;4897;43.570;27.832;2022-08-20T05:45:32;17.08;;;8.18;;
9716;SDS011;4897;43.570;27.832;2022-08-20T05:48:02;14.80;;;8.52;;
9716;SDS011;4897;43.570;27.832;2022-08-20T05:50:32;24.48;;;8.27;;
9716;SDS011;4897;43.570;27.832;2022-08-20T05:52:59;17.75;;;8.15;;
9716;SDS011;4897;43.570;27.832;2022-08-20T05:55:31;12.73;;;7.55;;
9716;SDS011;4897;43.570;27.832;2022-08-20T05:58:03;11.07;;;7.95;;
9716;SDS011;4897;43.570;27.832;2022-08-20T06:00:33;13.52;;;8.60;;
9716;SDS011;4897;43.570;27.832;2022-08-20T06:03:09;15.77;;;8.02;;
9716;SDS011;4897;43.570;27.832;2022-08-20T06:05:53;17.05;;;8.45;;
9716;SDS011;4897;43.570;27.832;2022-08-20T06:08:21;18.00;;;8.90;;
9716;SDS011;4897;43.570;27.832;2022-08-20T06:10:49;14.90;;;8.52;;
9716;SDS011;4897;43.570;27.832;2022-08-20T06:13:16;13.70;;;8.25;;
9716;SDS011;4897;43.570;27.832;2022-08-20T06:15:50;15.00;;;8.40;;
9716;SDS011;4897;43.570;27.832;2022-08-20T06:18:17;14.15;;;7.40;;
9716;SDS011;4897;43.570;27.832;2022-08-20T06:20:49;12.20;;;7.35;;
9716;SDS011;4897;43.570;27.832;2022-08-20T06:23:18;13.75;;;7.35;;
9716;SDS011;4897;43.570;27.832;2022-08-20T06:25:45;12.50;;;7.18;;
9716;SDS011;4897;43.570;27.832;2022-08-20T06:28:14;15.13;;;7.60;;
9716;SDS011;4897;43.570;27.832;2022-08-20T06:30:41;15.98;;;8.00;;
9716;SDS011;4897;43.570;27.832;2022-08-20T06:33:15;13.98;;;6.80;;
9716;SDS011;4897;43.570;27.832;2022-08-20T06:35:44;12.18;;;6.40;;
9716;SDS011;4897;43.570;27.832;2022-08-20T06:38:14;13.65;;;6.93;;
9716;SDS011;4897;43.570;27.832;2022-08-20T06:40:44;20.55;;;6.70;;
9716;SDS011;4897;43.570;27.832;2022-08-20T06:43:11;15.82;;;7.43;;
9716;SDS011;4897;43.570;27.832;2022-08-20T06:45:40;10.48;;;7.00;;
9716;SDS011;4897;43.570;27.832;2022-08-20T06:48:08;12.80;;;7.20;;
9716;SDS011;4897;43.570;27.832;2022-08-20T06:50:42;14.32;;;6.97;;
9716;SDS011;4897;43.570;27.832;2022-08-20T06:53:16;12.40;;;6.80;;
9716;SDS011;4897;43.570;27.832;2022-08-20T06:55:52;13.45;;;6.28;;
9716;SDS011;4897;43.570;27.832;2022-08-20T06:58:22;7.70;;;6.50;;
9716;SDS011;4897;43.570;27.832;2022-08-20T07:00:50;12.20;;;6.40;;
9716;SDS011;4897;43.570;27.832;2022-08-20T07:03:17;13.13;;;6.10;;
9716;SDS011;4897;43.570;27.832;2022-08-20T07:05:54;14.13;;;6.10;;
9716;SDS011;4897;43.570;27.832;2022-08-20T07:08:21;12.98;;;6.40;;
9716;SDS011;4897;43.570;27.832;2022-08-20T07:10:48;14.52;;;6.20;;
9716;SDS011;4897;43.570;27.832;2022-08-20T07:13:23;12.57;;;6.03;;
9716;SDS011;4897;43.570;27.832;2022-08-20T07:15:53;13.20;;;6.47;;
9716;SDS011;4897;43.570;27.832;2022-08-20T07:18:26;13.88;;;5.40;;
9716;SDS011;4897;43.570;27.832;2022-08-20T07:21:02;8.90;;;5.88;;
9716;SDS011;4897;43.570;27.832;2022-08-20T07:23:29;11.15;;;5.60;;
9716;SDS011;4897;43.570;27.832;2022-08-20T07:25:56;11.52;;;5.28;;
9716;SDS011;4897;43.570;27.832;2022-08-20T07:28:27;11.13;;;5.45;;
9716;SDS011;4897;43.570;27.832;2022-08-20T07:30:57;10.35;;;5.20;;
9716;SDS011;4897;43.570;27.832;2022-08-20T07:33:45;9.60;;;4.70;;
9716;SDS011;4897;43.570;27.832;2022-08-20T07:36:15;13.73;;;4.80;;
9716;SDS011;4897;43.570;27.832;2022-08-20T07:38:49;8.95;;;4.25;;
9716;SDS011;4897;43.570;27.832;2022-08-20T07:41:19;12.65;;;4.78;;
9716;SDS011;4897;43.570;27.832;2022-08-20T07:43:47;8.88;;;4.18;;
9716;SDS011;4897;43.570;27.832;2022-08-20T07:46:20;7.25;;;4.72;;
9716;SDS011;4897;43.570;27.832;2022-08-20T07:48:49;8.48;;;4.63;;
9716;SDS011;4897;43.570;27.832;2022-08-20T07:51:21;9.77;;;4.82;;
9716;SDS011;4897;43.570;27.832;2022-08-20T07:53:48;12.40;;;4.85;;
9716;SDS011;4897;43.570;27.832;2022-08-20T07:56:19;10.68;;;5.20;;
9716;SDS011;4897;43.570;27.832;2022-08-20T07:58:52;15.77;;;8.88;;
9716;SDS011;4897;43.570;27.832;2022-08-20T08:01:22;8.55;;;4.57;;
9716;SDS011;4897;43.570;27.832;2022-08-20T08:03:54;11.85;;;4.57;;
9716;SDS011;4897;43.570;27.832;2022-08-20T08:06:23;6.90;;;4.07;;
9716;SDS011;4897;43.570;27.832;2022-08-20T08:08:52;9.25;;;4.55;;
9716;SDS011;4897;43.570;27.832;2022-08-20T08:11:23;12.32;;;4.25;;
9716;SDS011;4897;43.570;27.832;2022-08-20T08:13:52;10.25;;;4.50;;
9716;SDS011;4897;43.570;27.832;2022-08-20T08:16:22;9.13;;;4.32;;
9716;SDS011;4897;43.570;27.832;2022-08-20T08:18:56;7.63;;;4.00;;
9716;SDS011;4897;43.570;27.832;2022-08-20T08:21:27;14.50;;;4.32;;
9716;SDS011;4897;43.570;27.832;2022-08-20T08:23:58;5.68;;;4.20;;
9716;SDS011;4897;43.570;27.832;2022-08-20T08:26:27;10.98;;;4.53;;
9716;SDS011;4897;43.570;27.832;2022-08-20T08:28:57;8.63;;;3.95;;
9716;SDS011;4897;43.570;27.832;2022-08-20T08:31:31;10.23;;;4.88;;
9716;SDS011;4897;43.570;27.832;2022-08-20T08:34:00;10.65;;;4.18;;
9716;SDS011;4897;43.570;27.832;2022-08-20T08:36:29;10.98;;;3.97;;
9716;SDS011;4897;43.570;27.832;2022-08-20T08:38:59;14.98;;;4.20;;
9716;SDS011;4897;43.570;27.832;2022-08-20T08:41:27;8.02;;;4.22;;
9716;SDS011;4897;43.570;27.832;2022-08-20T08:44:06;9.68;;;3.88;;
9716;SDS011;4897;43.570;27.832;2022-08-20T08:46:41;8.18;;;4.32;;
9716;SDS011;4897;43.570;27.832;2022-08-20T08:49:17;9.55;;;4.20;;
9716;SDS011;4897;43.570;27.832;2022-08-20T08:51:50;6.55;;;4.22;;
9716;SDS011;4897;43.570;27.832;2022-08-20T08:54:24;7.25;;;3.80;;
9716;SDS011;4897;43.570;27.832;2022-08-20T08:56:56;8.05;;;3.90;;
9716;SDS011;4897;43.570;27.832;2022-08-20T08:59:23;6.97;;;3.20;;
9716;SDS011;4897;43.570;27.832;2022-08-20T09:01:58;6.78;;;3.33;;
9716;SDS011;4897;43.570;27.832;2022-08-20T09:04:27;10.93;;;3.47;;
9716;SDS011;4897;43.570;27.832;2022-08-20T09:07:00;13.20;;;3.60;;
9716;SDS011;4897;43.570;27.832;2022-08-20T09:09:30;8.10;;;3.35;;
9716;SDS011;4897;43.570;27.832;2022-08-20T09:12:01;14.85;;;3.28;;
9716;SDS011;4897;43.570;27.832;2022-08-20T09:14:33;10.48;;;3.45;;
9716;SDS011;4897;43.570;27.832;2022-08-20T09:17:00;5.85;;;3.15;;
9716;SDS011;4897;43.570;27.832;2022-08-20T09:19:28;8.88;;;3.63;;
9716;SDS011;4897;43.570;27.832;2022-08-20T09:21:55;7.03;;;3.17;;
9716;SDS011;4897;43.570;27.832;2022-08-20T09:24:25;12.48;;;3.40;;
9716;SDS011;4897;43.570;27.832;2022-08-20T09:26:52;9.93;;;3.25;;
9716;SDS011;4897;43.570;27.832;2022-08-20T09:29:19;4.40;;;3.05;;
9716;SDS011;4897;43.570;27.832;2022-08-20T09:31:46;8.90;;;3.55;;
9716;SDS011;4897;43.570;27.832;2022-08-20T09:34:13;6.43;;;3.03;;
9716;SDS011;4897;43.570;27.832;2022-08-20T09:36:43;8.85;;;2.97;;
9716;SDS011;4897;43.570;27.832;2022-08-20T09:39:10;6.05;;;3.15;;
9716;SDS011;4897;43.570;27.832;2022-08-20T09:41:38;9.95;;;2.88;;
9716;SDS011;4897;43.570;27.832;2022-08-20T09:44:05;12.30;;;2.85;;
9716;SDS011;4897;43.570;27.832;2022-08-20T09:46:34;5.80;;;2.78;;
9716;SDS011;4897;43.570;27.832;2022-08-20T09:49:01;7.97;;;3.10;;
9716;SDS011;4897;43.570;27.832;2022-08-20T09:51:28;6.85;;;3.10;;
9716;SDS011;4897;43.570;27.832;2022-08-20T09:53:58;7.03;;;3.17;;
9716;SDS011;4897;43.570;27.832;2022-08-20T09:56:26;5.38;;;3.00;;
9716;SDS011;4897;43.570;27.832;2022-08-20T09:58:56;12.65;;;3.40;;
9716;SDS011;4897;43.570;27.832;2022-08-20T10:01:29;6.43;;;3.10;;
9716;SDS011;4897;43.570;27.832;2022-08-20T10:03:57;6.05;;;3.28;;
9716;SDS011;4897;43.570;27.832;2022-08-20T10:06:25;10.48;;;3.45;;
9716;SDS011;4897;43.570;27.832;2022-08-20T10:08:52;11.82;;;3.22;;
9716;SDS011;4897;43.570;27.832;2022-08-20T10:11:18;5.57;;;3.03;;
9716;SDS011;4897;43.570;27.832;2022-08-20T10:13:45;5.63;;;3.17;;
9716;SDS011;4897;43.570;27.832;2022-08-20T10:16:17;5.80;;;3.28;;
9716;SDS011;4897;43.570;27.832;2022-08-20T10:18:45;10.43;;;2.90;;
9716;SDS011;4897;43.570;27.832;2022-08-20T10:21:13;13.25;;;3.00;;
9716;SDS011;4897;43.570;27.832;2022-08-20T10:23:41;12.25;;;3.33;;
9716;SDS011;4897;43.570;27.832;2022-08-20T10:26:09;6.00;;;3.15;;
9716;SDS011;4897;43.570;27.832;2022-08-20T10:28:37;9.10;;;3.33;;
9716;SDS011;4897;43.570;27.832;2022-08-20T10:31:04;8.50;;;2.95;;
9716;SDS011;4897;43.570;27.832;2022-08-20T10:33:33;8.30;;;3.33;;
9716;SDS011;4897;43.570;27.832;2022-08-20T10:36:04;6.28;;;3.03;;
9716;SDS011;4897;43.570;27.832;2022-08-20T10:38:31;8.32;;;3.90;;
9716;SDS011;4897;43.570;27.832;2022-08-20T10:40:58;9.65;;;3.22;;
9716;SDS011;4897;43.570;27.832;2022-08-20T10:43:27;7.50;;;3.45;;
9716;SDS011;4897;43.570;27.832;2022-08-20T10:45:54;7.57;;;3.35;;
9716;SDS011;4897;43.570;27.832;2022-08-20T10:48:23;6.85;;;3.72;;
9716;SDS011;4897;43.570;27.832;2022-08-20T10:50:52;6.57;;;3.08;;
9716;SDS011;4897;43.570;27.832;2022-08-20T10:53:27;11.18;;;3.38;;
9716;SDS011;4897;43.570;27.832;2022-08-20T10:55:54;7.13;;;3.92;;
9716;SDS011;4897;43.570;27.832;2022-08-20T10:58:21;8.57;;;3.33;;
9716;SDS011;4897;43.570;27.832;2022-08-20T11:00:48;5.32;;;3.03;;
9716;SDS011;4897;43.570;27.832;2022-08-20T11:03:16;7.97;;;3.03;;
9716;SDS011;4897;43.570;27.832;2022-08-20T11:05:43;6.40;;;3.03;;
9716;SDS011;4897;43.570;27.832;2022-08-20T11:08:14;6.22;;;3.10;;
9716;SDS011;4897;43.570;27.832;2022-08-20T11:10:41;12.18;;;2.92;;
9716;SDS011;4897;43.570;27.832;2022-08-20T11:13:08;7.05;;;2.70;;
9716;SDS011;4897;43.570;27.832;2022-08-20T11:15:37;10.75;;;3.72;;
9716;SDS011;4897;43.570;27.832;2022-08-20T11:18:07;11.07;;;3.55;;
9716;SDS011;4897;43.570;27.832;2022-08-20T11:20:38;5.97;;;3.67;;
9716;SDS011;4897;43.570;27.832;2022-08-20T11:23:05;3.75;;;3.35;;
9716;SDS011;4897;43.570;27.832;2022-08-20T11:25:36;7.20;;;4.00;;
9716;SDS011;4897;43.570;27.832;2022-08-20T11:28:03;5.07;;;3.55;;
9716;SDS011;4897;43.570;27.832;2022-08-20T11:30:37;5.15;;;3.38;;
9716;SDS011;4897;43.570;27.832;2022-08-20T11:33:06;5.85;;;3.25;;
9716;SDS011;4897;43.570;27.832;2022-08-20T11:35:35;5.68;;;3.53;;
9716;SDS011;4897;43.570;27.832;2022-08-20T11:38:04;8.20;;;3.60;;
9716;SDS011;4897;43.570;27.832;2022-08-20T11:40:35;12.30;;;3.63;;
9716;SDS011;4897;43.570;27.832;2022-08-20T11:43:02;5.72;;;3.35;;
9716;SDS011;4897;43.570;27.832;2022-08-20T11:45:29;9.38;;;3.40;;
9716;SDS011;4897;43.570;27.832;2022-08-20T11:47:59;7.57;;;3.50;;
9716;SDS011;4897;43.570;27.832;2022-08-20T11:50:27;12.73;;;3.30;;
9716;SDS011;4897;43.570;27.832;2022-08-20T11:52:54;10.95;;;3.60;;
9716;SDS011;4897;43.570;27.832;2022-08-20T11:55:21;10.05;;;3.50;;
9716;SDS011;4897;43.570;27.832;2022-08-20T11:57:49;7.20;;;3.47;;
9716;SDS011;4897;43.570;27.832;2022-08-20T12:00:20;8.75;;;3.60;;
9716;SDS011;4897;43.570;27.832;2022-08-20T12:02:54;5.78;;;3.38;;
9716;SDS011;4897;43.570;27.832;2022-08-20T12:05:21;4.95;;;3.20;;
9716;SDS011;4897;43.570;27.832;2022-08-20T12:07:48;9.75;;;4.90;;
9716;SDS011;4897;43.570;27.832;2022-08-20T12:10:15;12.70;;;4.90;;
9716;SDS011;4897;43.570;27.832;2022-08-20T12:12:42;8.50;;;3.30;;
9716;SDS011;4897;43.570;27.832;2022-08-20T12:15:10;5.60;;;3.10;;
9716;SDS011;4897;43.570;27.832;2022-08-20T12:17:37;6.80;;;3.47;;
9716;SDS011;4897;43.570;27.832;2022-08-20T12:20:06;11.43;;;7.95;;
9716;SDS011;4897;43.570;27.832;2022-08-20T12:22:36;7.10;;;3.65;;
9716;SDS011;4897;43.570;27.832;2022-08-20T12:25:07;7.10;;;3.50;;
9716;SDS011;4897;43.570;27.832;2022-08-20T12:27:35;9.40;;;3.58;;
9716;SDS011;4897;43.570;27.832;2022-08-20T12:30:04;8.10;;;3.53;;
9716;SDS011;4897;43.570;27.832;2022-08-20T12:32:37;7.45;;;3.70;;
9716;SDS011;4897;43.570;27.832;2022-08-20T12:35:05;15.18;;;3.88;;
9716;SDS011;4897;43.570;27.832;2022-08-20T12:37:34;8.45;;;3.75;;
9716;SDS011;4897;43.570;27.832;2022-08-20T12:40:03;6.82;;;4.00;;
9716;SDS011;4897;43.570;27.832;2022-08-20T12:42:34;8.18;;;3.90;;
9716;SDS011;4897;43.570;27.832;2022-08-20T12:45:10;5.32;;;3.55;;
9716;SDS011;4897;43.570;27.832;2022-08-20T12:47:39;9.30;;;3.85;;
9716;SDS011;4897;43.570;27.832;2022-08-20T12:50:08;7.05;;;3.65;;
9716;SDS011;4897;43.570;27.832;2022-08-20T12:52:36;10.60;;;3.72;;
9716;SDS011;4897;43.570;27.832;2022-08-20T12:55:15;7.90;;;4.05;;
9716;SDS011;4897;43.570;27.832;2022-08-20T12:57:44;7.55;;;3.70;;
9716;SDS011;4897;43.570;27.832;2022-08-20T13:00:15;10.93;;;3.97;;
9716;SDS011;4897;43.570;27.832;2022-08-20T13:02:47;11.55;;;4.63;;
9716;SDS011;4897;43.570;27.832;2022-08-20T13:05:14;14.57;;;4.45;;
9716;SDS011;4897;43.570;27.832;2022-08-20T13:07:42;10.45;;;3.78;;
9716;SDS011;4897;43.570;27.832;2022-08-20T13:10:15;11.45;;;3.70;;
9716;SDS011;4897;43.570;27.832;2022-08-20T13:12:46;8.93;;;3.60;;
9716;SDS011;4897;43.570;27.832;2022-08-20T13:15:13;10.95;;;3.90;;
9716;SDS011;4897;43.570;27.832;2022-08-20T13:17:40;6.25;;;3.60;;
9716;SDS011;4897;43.570;27.832;2022-08-20T13:20:10;11.57;;;3.63;;
9716;SDS011;4897;43.570;27.832;2022-08-20T13:22:40;13.38;;;5.18;;
9716;SDS011;4897;43.570;27.832;2022-08-20T13:25:08;9.73;;;4.13;;
9716;SDS011;4897;43.570;27.832;2022-08-20T13:27:37;14.95;;;3.85;;
9716;SDS011;4897;43.570;27.832;2022-08-20T13:30:06;6.88;;;3.55;;
9716;SDS011;4897;43.570;27.832;2022-08-20T13:32:38;4.90;;;3.60;;
9716;SDS011;4897;43.570;27.832;2022-08-20T13:35:13;6.90;;;3.75;;
9716;SDS011;4897;43.570;27.832;2022-08-20T13:37:56;10.48;;;3.63;;
9716;SDS011;4897;43.570;27.832;2022-08-20T13:40:23;5.90;;;3.80;;
9716;SDS011;4897;43.570;27.832;2022-08-20T13:42:51;6.55;;;3.88;;
9716;SDS011;4897;43.570;27.832;2022-08-20T13:45:18;6.95;;;3.70;;
9716;SDS011;4897;43.570;27.832;2022-08-20T13:47:45;6.40;;;3.83;;
9716;SDS011;4897;43.570;27.832;2022-08-20T13:50:13;4.85;;;3.28;;
9716;SDS011;4897;43.570;27.832;2022-08-20T13:52:49;10.68;;;3.97;;
9716;SDS011;4897;43.570;27.832;2022-08-20T13:55:20;7.55;;;4.05;;
9716;SDS011;4897;43.570;27.832;2022-08-20T13:57:49;14.68;;;4.10;;
9716;SDS011;4897;43.570;27.832;2022-08-20T14:00:20;7.45;;;4.20;;
9716;SDS011;4897;43.570;27.832;2022-08-20T14:02:51;10.23;;;4.28;;
9716;SDS011;4897;43.570;27.832;2022-08-20T14:05:17;9.95;;;4.10;;
9716;SDS011;4897;43.570;27.832;2022-08-20T14:07:45;7.75;;;4.03;;
9716;SDS011;4897;43.570;27.832;2022-08-20T14:10:13;3.97;;;3.50;;
9716;SDS011;4897;43.570;27.832;2022-08-20T14:12:44;6.57;;;3.47;;
9716;SDS011;4897;43.570;27.832;2022-08-20T14:15:11;9.60;;;3.65;;
9716;SDS011;4897;43.570;27.832;2022-08-20T14:17:40;7.45;;;3.60;;
9716;SDS011;4897;43.570;27.832;2022-08-20T14:20:15;11.27;;;3.58;;
9716;SDS011;4897;43.570;27.832;2022-08-20T14:22:44;5.13;;;3.72;;
9716;SDS011;4897;43.570;27.832;2022-08-20T14:25:12;7.93;;;3.60;;
9716;SDS011;4897;43.570;27.832;2022-08-20T14:27:40;11.07;;;4.10;;
9716;SDS011;4897;43.570;27.832;2022-08-20T14:30:10;6.93;;;3.60;;
9716;SDS011;4897;43.570;27.832;2022-08-20T14:32:39;6.63;;;3.60;;
9716;SDS011;4897;43.570;27.832;2022-08-20T14:35:09;8.60;;;4.00;;
9716;SDS011;4897;43.570;27.832;2022-08-20T14:37:37;7.85;;;3.97;;
9716;SDS011;4897;43.570;27.832;2022-08-20T14:40:07;7.22;;;4.50;;
9716;SDS011;4897;43.570;27.832;2022-08-20T14:42:35;9.88;;;3.72;;
9716;SDS011;4897;43.570;27.832;2022-08-20T14:45:02;9.68;;;4.20;;
9716;SDS011;4897;43.570;27.832;2022-08-20T14:47:32;8.15;;;4.13;;
9716;SDS011;4897;43.570;27.832;2022-08-20T14:50:03;12.88;;;3.95;;
9716;SDS011;4897;43.570;27.832;2022-08-20T14:52:35;7.68;;;3.55;;
9716;SDS011;4897;43.570;27.832;2022-08-20T14:55:03;8.98;;;3.90;;
9716;SDS011;4897;43.570;27.832;2022-08-20T14:57:36;10.02;;;3.70;;
9716;SDS011;4897;43.570;27.832;2022-08-20T15:00:05;7.05;;;4.03;;
9716;SDS011;4897;43.570;27.832;2022-08-20T15:02:35;9.93;;;3.90;;
9716;SDS011;4897;43.570;27.832;2022-08-20T15:05:03;12.20;;;4.20;;